createdAt,value
2017-11-24T00:01:56.868Z,7.10
2017-11-24T00:04:58.778Z,7.10
2017-11-24T00:08:01.477Z,7.10
2017-11-24T00:11:04.305Z,7.10
2017-11-24T00:14:06.203Z,7.00
2017-11-24T00:17:08.133Z,7.10
2017-11-24T00:20:10.918Z,7.10
2017-11-24T00:23:12.907Z,7.10
2017-11-24T00:26:14.972Z,7.20
2017-11-24T00:29:16.916Z,7.20
2017-11-24T00:32:18.815Z,7.20
2017-11-24T00:35:20.734Z,7.20
2017-11-24T00:38:22.623Z,7.20
2017-11-24T00:41:24.567Z,7.20
2017-11-24T00:44:26.495Z,7.20
2017-11-24T00:47:29.240Z,7.10
2017-11-24T00:50:31.171Z,7.10
2017-11-24T00:53:33.173Z,7.10
2017-11-24T00:56:35.852Z,7.10
2017-11-24T00:59:37.811Z,7.10
2017-11-24T01:02:39.811Z,7.10
2017-11-24T01:05:41.730Z,7.10
2017-11-24T01:08:43.648Z,7.00
2017-11-24T01:11:45.587Z,7.00
2017-11-24T01:14:48.360Z,6.90
2017-11-24T01:17:50.292Z,6.90
2017-11-24T01:20:52.237Z,6.90
2017-11-24T01:23:55.027Z,6.80
2017-11-24T01:26:56.990Z,6.80
2017-11-24T01:29:58.972Z,6.80
2017-11-24T01:33:00.903Z,6.80
2017-11-24T01:36:02.820Z,6.80
2017-11-24T01:39:04.854Z,6.80
2017-11-24T01:42:07.558Z,6.70
2017-11-24T01:45:10.234Z,6.70
2017-11-24T01:48:13.363Z,6.70
2017-11-24T01:51:16.022Z,6.80
2017-11-24T01:54:17.950Z,6.80
2017-11-24T01:57:20.825Z,7.00
2017-11-24T02:00:22.772Z,7.00
2017-11-24T02:03:24.670Z,7.00
2017-11-24T02:06:26.577Z,7.00
2017-11-24T02:09:29.983Z,7.10
2017-11-24T02:12:31.891Z,7.10
2017-11-24T02:15:34.550Z,7.00
2017-11-24T02:18:36.468Z,7.00
2017-11-24T02:21:39.163Z,6.90
2017-11-24T02:24:41.121Z,6.90
2017-11-24T02:27:43.042Z,6.90
2017-11-24T02:30:45.155Z,6.90
2017-11-24T02:33:47.047Z,6.90
2017-11-24T02:36:48.991Z,6.90
2017-11-24T02:39:51.679Z,6.80
2017-11-24T02:42:54.364Z,6.80
2017-11-24T02:45:56.423Z,6.80
2017-11-24T02:48:58.358Z,6.80
2017-11-24T02:52:01.044Z,6.80
2017-11-24T02:55:02.991Z,6.80
2017-11-24T02:58:04.917Z,6.80
2017-11-24T03:01:08.537Z,6.70
2017-11-24T03:04:11.237Z,6.70
2017-11-24T03:07:13.937Z,6.70
2017-11-24T03:10:16.601Z,6.70
2017-11-24T03:13:18.534Z,6.70
2017-11-24T03:16:21.208Z,6.70
2017-11-24T03:19:23.135Z,6.70
2017-11-24T03:22:25.065Z,6.70
2017-11-24T03:25:27.005Z,6.80
2017-11-24T03:28:28.902Z,6.80
2017-11-24T03:31:30.845Z,6.80
2017-11-24T03:34:33.542Z,6.90
2017-11-24T03:37:36.240Z,7.00
2017-11-24T03:40:38.932Z,7.00
2017-11-24T03:43:41.615Z,7.10
2017-11-24T03:46:43.597Z,7.00
2017-11-24T03:49:45.530Z,7.10
2017-11-24T03:52:47.487Z,7.20
2017-11-24T03:55:50.164Z,7.20
2017-11-24T03:58:52.084Z,7.20
2017-11-24T04:01:54.029Z,7.20
2017-11-24T04:04:55.954Z,7.30
2017-11-24T04:07:57.890Z,7.30
2017-11-24T04:11:00.492Z,7.30
2017-11-24T04:14:02.416Z,7.30
2017-11-24T04:17:04.341Z,7.40
2017-11-24T04:20:06.276Z,7.40
2017-11-24T04:23:08.190Z,7.50
2017-11-24T04:26:10.110Z,7.50
2017-11-24T04:29:12.773Z,7.50
2017-11-24T04:32:14.705Z,7.50
2017-11-24T04:35:17.382Z,7.60
2017-11-24T04:38:19.355Z,7.60
2017-11-24T04:41:22.186Z,7.60
2017-11-24T04:44:24.862Z,7.70
2017-11-24T04:47:26.778Z,7.60
2017-11-24T04:50:28.699Z,7.60
2017-11-24T04:53:30.582Z,7.60
2017-11-24T04:56:32.495Z,7.60
2017-11-24T04:59:35.205Z,7.60
2017-11-24T05:02:37.910Z,7.60
2017-11-24T05:05:40.581Z,7.60
2017-11-24T05:08:42.552Z,7.60
2017-11-24T05:11:44.499Z,7.60
2017-11-24T05:14:46.438Z,7.60
2017-11-24T05:17:48.396Z,7.60
2017-11-24T05:20:50.331Z,7.60
2017-11-24T05:23:52.226Z,7.50
2017-11-24T05:26:54.141Z,7.50
2017-11-24T05:29:56.060Z,7.50
2017-11-24T05:32:58.855Z,7.40
2017-11-24T05:36:01.556Z,7.30
2017-11-24T05:39:05.079Z,7.30
2017-11-24T05:42:07.788Z,7.20
2017-11-24T05:45:10.602Z,7.20
2017-11-24T05:48:12.530Z,7.20
2017-11-24T05:51:14.738Z,7.20
2017-11-24T05:54:16.659Z,7.20
2017-11-24T05:57:18.607Z,7.20
2017-11-24T06:00:21.289Z,7.20
2017-11-24T06:03:23.226Z,7.10
2017-11-24T06:06:25.113Z,7.10
2017-11-24T06:09:27.062Z,7.10
2017-11-24T06:12:29.811Z,7.10
2017-11-24T06:15:31.726Z,7.10
2017-11-24T06:18:35.126Z,7.10
2017-11-24T06:21:37.089Z,7.10
2017-11-24T06:24:38.982Z,7.10
2017-11-24T06:27:40.927Z,7.10
2017-11-24T06:30:42.866Z,7.10
2017-11-24T06:33:44.794Z,7.10
2017-11-24T06:36:46.715Z,7.10
2017-11-24T06:39:49.434Z,7.10
2017-11-24T06:42:51.641Z,7.00
2017-11-24T06:45:54.322Z,7.10
2017-11-24T06:48:57.019Z,7.10
2017-11-24T06:51:58.944Z,7.10
2017-11-24T06:55:00.853Z,7.20
2017-11-24T06:58:02.790Z,7.20
2017-11-24T07:01:04.841Z,7.20
2017-11-24T07:04:06.822Z,7.20
2017-11-24T07:07:08.797Z,7.20
2017-11-24T07:10:10.714Z,7.20
2017-11-24T07:13:13.366Z,7.20
2017-11-24T07:16:15.462Z,7.20
2017-11-24T07:19:17.354Z,7.20
2017-11-24T07:22:19.283Z,7.10
2017-11-24T07:25:21.274Z,7.10
2017-11-24T07:28:23.205Z,7.00
2017-11-24T07:31:25.102Z,7.00
2017-11-24T07:34:27.894Z,7.10
2017-11-24T07:37:29.876Z,7.00
2017-11-24T07:40:31.823Z,7.10
2017-11-24T07:43:33.851Z,7.10
2017-11-24T07:46:35.846Z,7.10
2017-11-24T07:49:37.807Z,7.10
2017-11-24T07:52:39.838Z,7.10
2017-11-24T07:55:41.778Z,7.10
2017-11-24T07:58:43.806Z,7.10
2017-11-24T08:01:45.738Z,7.10
2017-11-24T08:04:47.693Z,7.00
2017-11-24T08:07:49.791Z,7.00
2017-11-24T08:10:51.698Z,7.00
2017-11-24T08:13:53.615Z,7.00
2017-11-24T08:16:56.445Z,7.10
2017-11-24T08:19:58.506Z,7.10
2017-11-24T08:23:00.544Z,7.10
2017-11-24T08:26:02.446Z,7.20
2017-11-24T08:29:05.160Z,7.20
2017-11-24T08:32:07.839Z,7.20
2017-11-24T08:35:10.637Z,7.30
2017-11-24T08:38:12.534Z,7.20
2017-11-24T08:41:15.222Z,7.30
2017-11-24T08:44:17.120Z,7.30
2017-11-24T08:47:19.882Z,7.40
2017-11-24T08:50:21.782Z,7.40
2017-11-24T08:53:23.855Z,7.50
2017-11-24T08:56:25.830Z,7.60
2017-11-24T08:59:27.750Z,7.80
2017-11-24T09:02:30.412Z,7.90
2017-11-24T09:05:32.330Z,7.90
2017-11-24T09:08:35.013Z,8.20
2017-11-24T09:11:37.719Z,8.50
2017-11-24T09:14:41.309Z,8.90
2017-11-24T09:17:43.226Z,8.80
2017-11-24T09:20:45.891Z,10.80
2017-11-24T09:23:47.827Z,10.70
2017-11-24T09:26:49.743Z,11.70
2017-11-24T09:29:51.699Z,13.00
2017-11-24T09:32:53.629Z,13.90
2017-11-24T09:35:56.166Z,13.90
2017-11-24T09:38:58.088Z,13.30
2017-11-24T09:42:00.026Z,12.70
2017-11-24T09:45:02.686Z,11.70
2017-11-24T09:48:04.639Z,11.60
2017-11-24T09:51:06.641Z,11.40
2017-11-24T09:54:08.563Z,11.20
2017-11-24T09:57:11.228Z,11.50
2017-11-24T10:00:13.249Z,11.60
2017-11-24T10:03:15.947Z,12.10
2017-11-24T10:06:18.652Z,12.70
2017-11-24T10:09:21.343Z,12.90
2017-11-24T10:12:24.119Z,12.70
2017-11-24T10:15:26.106Z,12.70
2017-11-24T10:18:28.024Z,12.30
2017-11-24T10:21:30.770Z,11.80
2017-11-24T10:24:32.717Z,11.50
2017-11-24T10:27:34.651Z,11.20
2017-11-24T10:30:36.657Z,10.90
2017-11-24T10:33:39.435Z,10.40
2017-11-24T10:36:41.442Z,10.40
2017-11-24T10:39:43.340Z,10.00
2017-11-24T10:42:46.051Z,9.50
2017-11-24T10:45:47.974Z,9.50
2017-11-24T10:48:49.955Z,9.30
2017-11-24T10:51:51.861Z,9.10
2017-11-24T10:54:53.846Z,9.10
2017-11-24T10:57:55.772Z,9.00
2017-11-24T11:00:57.692Z,8.90
2017-11-24T11:03:59.588Z,8.80
2017-11-24T11:07:01.520Z,8.80
2017-11-24T11:10:03.531Z,8.80
2017-11-24T11:13:05.458Z,8.90
2017-11-24T11:16:08.143Z,9.20
2017-11-24T11:19:10.339Z,9.20
2017-11-24T11:22:13.035Z,9.20
2017-11-24T11:25:14.977Z,9.20
2017-11-24T11:28:16.870Z,9.20
2017-11-24T11:31:18.873Z,9.10
2017-11-24T11:34:20.793Z,9.00
2017-11-24T11:37:22.711Z,9.00
2017-11-24T11:40:24.638Z,8.90
2017-11-24T11:43:27.339Z,8.80
2017-11-24T11:46:30.011Z,8.80
2017-11-24T11:49:31.986Z,8.80
2017-11-24T11:52:33.910Z,8.80
2017-11-24T11:55:35.854Z,8.80
2017-11-24T11:58:38.470Z,8.80
2017-11-24T12:01:40.564Z,8.70
2017-11-24T12:04:43.245Z,8.70
2017-11-24T12:07:45.190Z,8.70
2017-11-24T12:10:47.105Z,8.70
2017-11-24T12:13:49.048Z,8.70
2017-11-24T12:16:50.963Z,8.60
2017-11-24T12:19:52.898Z,8.60
2017-11-24T12:22:54.849Z,8.70
2017-11-24T12:25:56.840Z,8.70
2017-11-24T12:28:59.530Z,8.80
2017-11-24T12:32:01.472Z,8.80
2017-11-24T12:35:03.392Z,8.80
2017-11-24T12:38:05.336Z,8.70
2017-11-24T12:41:07.358Z,8.70
2017-11-24T12:44:10.192Z,8.60
2017-11-24T12:47:12.360Z,8.60
2017-11-24T12:50:15.119Z,8.60
2017-11-24T12:53:17.159Z,8.60
2017-11-24T12:56:19.864Z,8.50
2017-11-24T12:59:22.139Z,8.50
2017-11-24T13:02:24.852Z,8.40
2017-11-24T13:05:27.626Z,8.40
2017-11-24T13:08:30.503Z,8.40
2017-11-24T13:11:32.394Z,8.40
2017-11-24T13:14:34.367Z,8.40
2017-11-24T13:17:36.372Z,8.40
2017-11-24T13:20:38.305Z,8.40
2017-11-24T13:23:40.222Z,8.40
2017-11-24T13:26:42.209Z,8.40
2017-11-24T13:29:44.208Z,8.40
2017-11-24T13:32:46.147Z,8.50
2017-11-24T13:35:48.038Z,8.50
2017-11-24T13:38:49.971Z,8.60
2017-11-24T13:41:52.652Z,8.60
2017-11-24T13:44:54.635Z,8.60
2017-11-24T13:47:56.598Z,8.60
2017-11-24T13:50:58.904Z,8.50
2017-11-24T13:54:00.791Z,8.50
2017-11-24T13:57:02.742Z,8.50
2017-11-24T14:00:04.670Z,8.40
2017-11-24T14:03:07.462Z,8.40
2017-11-24T14:06:09.443Z,8.40
2017-11-24T14:09:12.220Z,8.40
2017-11-24T14:12:14.185Z,8.40
2017-11-24T14:15:16.426Z,8.50
2017-11-24T14:18:18.315Z,8.40
2017-11-24T14:21:20.995Z,8.40
2017-11-24T14:24:22.883Z,8.40
2017-11-24T14:27:24.816Z,8.40
2017-11-24T14:30:26.715Z,8.40
2017-11-24T14:33:28.626Z,8.30
2017-11-24T14:36:30.550Z,8.30
2017-11-24T14:39:32.555Z,8.20
2017-11-24T14:42:34.443Z,8.20
2017-11-24T14:45:36.501Z,8.10
2017-11-24T14:48:38.393Z,8.10
2017-11-24T14:51:40.327Z,8.10
2017-11-24T14:54:43.067Z,8.00
2017-11-24T14:57:44.983Z,8.00
2017-11-24T15:00:47.716Z,8.00
2017-11-24T15:03:50.213Z,8.00
2017-11-24T15:06:52.174Z,8.00
2017-11-24T15:09:54.116Z,7.90
2017-11-24T15:12:56.126Z,7.80
2017-11-24T15:15:58.350Z,7.70
2017-11-24T15:19:01.234Z,7.50
2017-11-24T15:22:03.195Z,7.50
2017-11-24T15:25:05.113Z,7.40
2017-11-24T15:28:07.797Z,7.10
2017-11-24T15:31:10.450Z,7.00
2017-11-24T15:34:12.410Z,7.00
2017-11-24T15:37:15.158Z,6.80
2017-11-24T15:40:17.103Z,6.80
2017-11-24T15:43:18.992Z,6.80
2017-11-24T15:46:21.007Z,6.70
2017-11-24T15:49:22.932Z,6.70
2017-11-24T15:52:25.619Z,6.70
2017-11-24T15:55:27.547Z,6.60
2017-11-24T15:58:29.473Z,6.60
2017-11-24T16:01:31.438Z,6.50
2017-11-24T16:04:33.356Z,6.40
2017-11-24T16:07:36.014Z,6.20
2017-11-24T16:10:37.962Z,6.10
2017-11-24T16:13:40.077Z,6.10
2017-11-24T16:16:42.028Z,6.00
2017-11-24T16:19:43.955Z,5.90
2017-11-24T16:22:45.903Z,5.90
2017-11-24T16:25:47.823Z,5.80
2017-11-24T16:28:49.795Z,5.70
2017-11-24T16:31:51.683Z,5.70
2017-11-24T16:34:53.691Z,5.60
2017-11-24T16:37:55.626Z,5.50
2017-11-24T16:40:57.560Z,5.50
2017-11-24T16:43:59.479Z,5.40
2017-11-24T16:47:01.490Z,5.40
2017-11-24T16:50:03.411Z,5.50
2017-11-24T16:53:06.144Z,5.40
2017-11-24T16:56:08.398Z,5.40
2017-11-24T16:59:10.332Z,5.40
2017-11-24T17:02:12.333Z,5.40
2017-11-24T17:05:14.349Z,5.30
2017-11-24T17:08:17.120Z,5.20
2017-11-24T17:11:19.064Z,5.20
2017-11-24T17:14:20.987Z,5.20
2017-11-24T17:17:22.936Z,5.20
2017-11-24T17:20:24.854Z,5.10
2017-11-24T17:23:27.612Z,5.10
2017-11-24T17:26:29.503Z,5.00
2017-11-24T17:29:31.427Z,5.00
2017-11-24T17:32:33.328Z,5.00
2017-11-24T17:35:35.265Z,4.90
2017-11-24T17:38:37.178Z,4.90
2017-11-24T17:41:39.106Z,4.80
2017-11-24T17:44:41.045Z,4.80
2017-11-24T17:47:43.001Z,4.80
2017-11-24T17:50:44.911Z,4.70
2017-11-24T17:53:46.853Z,4.70
2017-11-24T17:56:48.765Z,4.70
2017-11-24T17:59:51.411Z,4.70
2017-11-24T18:02:53.304Z,4.60
2017-11-24T18:05:55.251Z,4.50
2017-11-24T18:08:57.975Z,4.40
2017-11-24T18:11:59.908Z,4.40
2017-11-24T18:15:01.831Z,4.40
2017-11-24T18:18:03.757Z,4.30
2017-11-24T18:21:05.681Z,4.30
2017-11-24T18:24:08.381Z,4.20
2017-11-24T18:27:11.070Z,4.20
2017-11-24T18:30:13.020Z,4.20
2017-11-24T18:33:14.918Z,4.20
2017-11-24T18:36:16.868Z,4.20
2017-11-24T18:39:19.632Z,4.20
2017-11-24T18:42:22.327Z,4.20
2017-11-24T18:45:24.985Z,4.20
2017-11-24T18:48:26.911Z,4.20
2017-11-24T18:51:29.571Z,4.20
2017-11-24T18:54:31.509Z,4.20
2017-11-24T18:57:33.408Z,4.20
2017-11-24T19:00:35.368Z,4.10
2017-11-24T19:03:37.286Z,4.00
2017-11-24T19:06:39.233Z,4.00
2017-11-24T19:09:41.130Z,3.90
2017-11-24T19:12:43.047Z,3.80
2017-11-24T19:15:44.971Z,3.80
2017-11-24T19:18:47.699Z,3.70
2017-11-24T19:21:49.618Z,3.60
2017-11-24T19:24:51.569Z,3.60
2017-11-24T19:27:53.489Z,3.60
2017-11-24T19:30:56.196Z,3.60
2017-11-24T19:33:58.119Z,3.60
2017-11-24T19:37:00.061Z,3.60
2017-11-24T19:40:01.999Z,3.50
2017-11-24T19:43:03.945Z,3.40
2017-11-24T19:46:06.614Z,3.30
2017-11-24T19:49:08.557Z,3.20
2017-11-24T19:52:10.499Z,3.20
2017-11-24T19:55:13.205Z,3.20
2017-11-24T19:58:15.891Z,3.20
2017-11-24T20:01:17.822Z,3.20
2017-11-24T20:04:19.732Z,3.20
2017-11-24T20:07:21.676Z,3.30
2017-11-24T20:10:23.590Z,3.30
2017-11-24T20:13:25.514Z,3.30
2017-11-24T20:16:28.210Z,3.40
2017-11-24T20:19:30.971Z,3.40
2017-11-24T20:22:32.918Z,3.40
2017-11-24T20:25:34.946Z,3.40
2017-11-24T20:28:36.872Z,3.30
2017-11-24T20:31:39.040Z,3.20
2017-11-24T20:34:41.728Z,3.20
2017-11-24T20:37:43.658Z,3.10
2017-11-24T20:40:57.620Z,3.10
2017-11-24T20:43:59.583Z,3.10
2017-11-24T20:47:01.519Z,3.00
2017-11-24T20:50:03.478Z,3.00
2017-11-24T20:53:05.426Z,3.00
2017-11-24T20:56:08.161Z,2.90
2017-11-24T20:59:10.097Z,2.90
2017-11-24T21:02:12.302Z,2.90
2017-11-24T21:05:15.093Z,2.90
2017-11-24T21:08:17.083Z,2.90
2017-11-24T21:11:19.744Z,2.80
2017-11-24T21:14:21.830Z,2.80
2017-11-24T21:17:23.754Z,2.80
2017-11-24T21:20:26.523Z,2.80
2017-11-24T21:23:28.490Z,2.80
2017-11-24T21:26:30.418Z,2.80
2017-11-24T21:29:33.121Z,2.80
2017-11-24T21:32:35.839Z,2.80
2017-11-24T21:35:37.745Z,2.80
2017-11-24T21:38:39.742Z,2.90
2017-11-24T21:41:41.669Z,2.90
2017-11-24T21:44:44.442Z,2.90
2017-11-24T21:47:46.366Z,2.90
2017-11-24T21:50:49.221Z,3.00
2017-11-24T21:53:51.206Z,3.00
2017-11-24T21:56:53.166Z,3.00
2017-11-24T21:59:55.181Z,3.10
2017-11-24T22:02:57.190Z,3.10
2017-11-24T22:05:59.275Z,3.20
2017-11-24T22:09:01.999Z,3.20
2017-11-24T22:12:03.898Z,3.20
2017-11-24T22:15:05.823Z,3.20
2017-11-24T22:18:07.735Z,3.20
2017-11-24T22:21:10.455Z,3.30
2017-11-24T22:24:12.392Z,3.20
2017-11-24T22:27:14.381Z,3.30
2017-11-24T22:30:17.083Z,3.30
2017-11-24T22:33:19.795Z,3.30
2017-11-24T22:36:21.754Z,3.20
2017-11-24T22:39:23.726Z,3.30
2017-11-24T22:42:25.622Z,3.30
2017-11-24T22:45:27.614Z,3.40
2017-11-24T22:48:30.282Z,3.40
2017-11-24T22:51:32.249Z,3.40
2017-11-24T22:54:34.150Z,3.40
2017-11-24T22:57:36.250Z,3.40
2017-11-24T23:00:38.153Z,3.40
2017-11-24T23:03:40.853Z,3.50
2017-11-24T23:06:43.624Z,3.50
2017-11-24T23:09:45.549Z,3.50
2017-11-24T23:12:47.475Z,3.50
2017-11-24T23:15:49.470Z,3.50
2017-11-24T23:18:52.187Z,3.60
2017-11-24T23:21:54.162Z,3.50
2017-11-24T23:24:56.235Z,3.60
2017-11-24T23:27:58.199Z,3.60
2017-11-24T23:31:00.440Z,3.60
2017-11-24T23:34:03.171Z,3.70
2017-11-24T23:37:05.080Z,3.60
2017-11-24T23:40:07.096Z,3.70
2017-11-24T23:43:09.000Z,3.70
2017-11-24T23:46:11.770Z,3.80
2017-11-24T23:49:13.682Z,3.70
2017-11-24T23:52:15.745Z,3.70
2017-11-24T23:55:17.664Z,3.80
2017-11-24T23:58:19.685Z,3.80
